TW-0005 weather

CLOSED Bade Airstrip
Bade City, Taoyuan County, Taiwan

Public forecast

Using degrees Celsius for public forecast. Weather courtesy of forecast.io.

METAR (pilot weather report)

Closest report is Taiwan Taoyuan International Airport, 9.4 nm (17.4 km) NNW. Retrieved 2019/09/20 17:30 UTC (0 seconds ago):

RCTP 201730Z 19009KT 160V230 2200 RA FEW012 BKN020 BKN040 19/19 Q1005 WS ALL RWY NOSIG RMK A2968

TAF (pilot weather forecast)

Closest forecast is Taiwan Taoyuan International Airport, 9.4 nm (17.4 km) NNW. Retrieved 2019/09/20 12:00 UTC (5 hours ago):

TAF VHHH 201100Z 2012/2118 34015KT CAVOK TX31/2106Z TN25/2022Z= TAF RCTP 201100Z 2012/2118 35013KT 9999 FEW016 BKN032 TEMPO 2012/2017 02016G26KT FEW012 BKN020 TEMPO 2017/2023 33017G27KT 3500 RA FEW006 BKN015 TEMPO 2103/2110 32015G25KT 4000 RA FEW008 BKN017 BECMG 2110/2112 32010KT